Time;durP1;ratioP1;P1;durP2;ratioP2;P2;SDS_P1;SDS_P2;PMS_P1;PMS_P2;Temp;Humidity;BMP_temperature;BMP_pressure;BME280_temperature;BME280_humidity;BME280_pressure;Samples;Min_cycle;Max_cycle;Signal;HPM_P1;HPM_P2
2022/05/24 00:01:49;;;;;;;13.38;9.25;;;14.90;99.90;;;;;;12360347;28;20046;-81
2022/05/24 00:07:52;;;;;;;11.88;9.00;;;14.80;99.90;;;;;;12355861;28;21424;-82
2022/05/24 00:13:53;;;;;;;12.75;8.88;;;14.80;99.90;;;;;;12354502;28;20046;-80
2022/05/24 00:19:55;;;;;;;10.68;8.27;;;14.70;99.90;;;;;;12322879;28;20046;-81
2022/05/24 00:26:01;;;;;;;9.85;6.30;;;14.70;99.90;;;;;;12332629;28;20085;-81
2022/05/24 00:32:04;;;;;;;8.20;5.50;;;14.70;99.90;;;;;;12331061;28;20105;-80
2022/05/24 00:38:09;;;;;;;6.85;5.18;;;14.60;99.90;;;;;;12335897;28;20058;-81
2022/05/24 00:44:15;;;;;;;7.95;4.85;;;14.50;99.90;;;;;;12335218;28;20058;-82
2022/05/24 00:50:31;;;;;;;7.15;5.13;;;14.40;99.90;;;;;;12314645;28;20113;-79
2022/05/24 00:56:42;;;;;;;7.95;5.13;;;14.30;99.90;;;;;;12330266;28;20452;-80
2022/05/24 01:02:44;;;;;;;7.93;4.78;;;14.30;99.90;;;;;;12321741;28;20054;-80
2022/05/24 01:08:46;;;;;;;7.15;4.63;;;14.30;99.90;;;;;;12335911;28;20049;-81
2022/05/24 01:14:48;;;;;;;7.53;5.03;;;14.30;99.90;;;;;;12313525;28;20162;-81
2022/05/24 01:21:01;;;;;;;7.63;4.60;;;14.10;99.90;;;;;;12337227;28;20050;-81
2022/05/24 01:27:03;;;;;;;7.10;4.57;;;14.20;99.90;;;;;;12337694;28;20055;-80
2022/05/24 01:39:25;;;;;;;9.35;5.38;;;14.10;99.90;;;;;;12334243;28;20085;-80
2022/05/24 01:45:35;;;;;;;8.80;5.65;;;14.00;99.90;;;;;;12312508;28;20454;-80
2022/05/24 01:51:45;;;;;;;9.00;6.15;;;14.10;99.90;;;;;;12323407;28;20050;-82
2022/05/24 01:57:53;;;;;;;12.07;6.82;;;14.00;99.90;;;;;;12334811;28;20108;-79
2022/05/24 02:03:55;;;;;;;10.07;7.63;;;14.30;99.90;;;;;;12336887;28;20194;-79
2022/05/24 02:09:57;;;;;;;9.85;7.18;;;14.40;99.90;;;;;;12350398;28;20042;-80
2022/05/24 02:16:03;;;;;;;10.65;6.57;;;14.30;99.90;;;;;;12336111;28;20194;-79
2022/05/24 02:22:11;;;;;;;10.35;7.78;;;14.10;99.90;;;;;;12331335;28;20042;-80
2022/05/24 02:28:14;;;;;;;12.88;7.82;;;14.10;99.90;;;;;;12328327;28;20080;-80
2022/05/24 02:34:16;;;;;;;11.77;8.65;;;14.10;99.90;;;;;;12320516;28;20046;-79
2022/05/24 02:46:43;;;;;;;13.27;10.32;;;14.40;99.90;;;;;;12335040;28;20837;-80
2022/05/24 02:52:45;;;;;;;13.20;10.52;;;14.40;99.90;;;;;;12323180;28;20895;-80
2022/05/24 02:58:47;;;;;;;16.33;11.70;;;14.40;99.90;;;;;;12317177;28;20053;-79
2022/05/24 03:04:49;;;;;;;14.30;11.98;;;14.30;99.90;;;;;;12335719;28;20112;-80
2022/05/24 03:10:51;;;;;;;18.88;13.07;;;14.30;99.90;;;;;;12331327;28;21002;-80
2022/05/24 03:16:53;;;;;;;17.05;13.07;;;14.40;99.90;;;;;;12333949;28;20050;-80
2022/05/24 03:22:55;;;;;;;19.17;14.38;;;14.30;99.90;;;;;;12335144;28;20047;-81
2022/05/24 03:28:57;;;;;;;20.50;16.52;;;14.30;99.90;;;;;;12340277;28;20051;-79
2022/05/24 03:35:03;;;;;;;19.67;15.88;;;14.40;99.90;;;;;;12332036;28;20108;-79
2022/05/24 03:41:05;;;;;;;21.60;15.55;;;14.30;99.90;;;;;;12330503;28;20098;-80
2022/05/24 03:47:07;;;;;;;22.52;16.45;;;14.40;99.90;;;;;;12328541;28;20055;-80
2022/05/24 03:53:09;;;;;;;20.67;17.33;;;14.50;99.90;;;;;;12325319;28;20043;-81
2022/05/24 03:59:11;;;;;;;21.88;17.08;;;14.40;99.90;;;;;;12337154;28;20079;-79
2022/05/24 04:05:13;;;;;;;25.02;19.20;;;14.50;99.90;;;;;;12329077;28;20054;-80
2022/05/24 04:11:15;;;;;;;25.30;20.52;;;14.50;99.90;;;;;;12324927;28;20500;-79
2022/05/24 04:17:16;;;;;;;29.75;23.23;;;14.40;99.90;;;;;;12315945;28;20054;-80
2022/05/24 04:23:19;;;;;;;30.35;24.88;;;14.40;99.90;;;;;;12328594;28;20049;-80
2022/05/24 04:29:21;;;;;;;33.75;25.88;;;14.50;99.90;;;;;;12327475;28;20048;-81
2022/05/24 04:35:23;;;;;;;34.17;25.02;;;14.40;99.90;;;;;;12329155;28;20042;-79
2022/05/24 04:47:45;;;;;;;32.97;24.63;;;14.60;99.90;;;;;;12336334;28;20054;-79
2022/05/24 04:53:47;;;;;;;29.30;24.58;;;14.60;99.90;;;;;;12319489;28;20055;-80
2022/05/24 04:59:50;;;;;;;31.05;23.25;;;14.70;99.90;;;;;;12311392;28;20054;-80
2022/05/24 05:05:52;;;;;;;26.88;21.88;;;14.60;99.90;;;;;;12314148;28;20515;-80
2022/05/24 05:11:54;;;;;;;25.67;20.58;;;14.70;99.90;;;;;;12323763;28;20105;-79
2022/05/24 05:18:03;;;;;;;24.92;20.08;;;14.60;99.90;;;;;;12322050;28;20137;-81
2022/05/24 05:24:06;;;;;;;25.15;20.48;;;14.80;99.90;;;;;;12320905;28;20377;-79
2022/05/24 05:36:31;;;;;;;24.58;18.52;;;14.90;99.90;;;;;;12324005;28;20446;-79
2022/05/24 05:42:34;;;;;;;24.88;17.92;;;14.90;99.90;;;;;;12329381;28;20051;-80
2022/05/24 05:48:37;;;;;;;20.77;16.97;;;15.00;99.90;;;;;;12305260;28;20061;-78
2022/05/24 05:54:39;;;;;;;22.05;17.35;;;15.00;99.90;;;;;;12325662;28;20133;-81
2022/05/24 06:00:41;;;;;;;20.10;15.65;;;14.90;99.90;;;;;;12322529;28;20047;-79
2022/05/24 06:06:46;;;;;;;23.17;16.70;;;14.80;99.90;;;;;;12307397;28;20055;-80
2022/05/24 06:12:48;;;;;;;19.08;15.70;;;14.90;99.90;;;;;;12306069;28;20125;-80
2022/05/24 06:18:50;;;;;;;19.92;15.45;;;14.90;99.90;;;;;;12322695;28;20093;-80
2022/05/24 06:24:52;;;;;;;17.70;14.93;;;15.00;99.90;;;;;;12306420;28;20181;-79
2022/05/24 06:30:54;;;;;;;19.00;15.13;;;15.00;99.90;;;;;;12305120;28;20142;-80
2022/05/24 06:36:57;;;;;;;19.73;14.82;;;15.00;99.90;;;;;;12327882;28;20613;-80
2022/05/24 06:42:59;;;;;;;20.73;15.88;;;15.00;99.90;;;;;;12319276;28;20110;-79
2022/05/24 06:49:01;;;;;;;18.48;15.13;;;15.10;99.90;;;;;;12322091;28;20050;-80
2022/05/24 06:55:05;;;;;;;21.63;15.85;;;15.00;99.90;;;;;;12324468;28;20105;-80
2022/05/24 07:07:34;;;;;;;20.63;16.73;;;14.80;99.90;;;;;;12325001;28;20166;-79
2022/05/24 07:13:36;;;;;;;23.58;17.67;;;14.60;99.90;;;;;;12324035;28;20424;-80
2022/05/24 07:19:38;;;;;;;25.67;19.25;;;14.30;99.90;;;;;;12323671;28;20380;-81
2022/05/24 07:25:41;;;;;;;21.55;17.13;;;14.10;99.90;;;;;;12327775;28;20459;-81
2022/05/24 07:31:43;;;;;;;20.60;15.70;;;13.90;99.90;;;;;;12330052;28;20050;-82
2022/05/24 07:37:45;;;;;;;18.60;15.35;;;13.70;99.90;;;;;;12335983;28;20050;-82
2022/05/24 07:50:08;;;;;;;21.00;14.57;;;13.40;99.90;;;;;;12318363;28;20051;-80
2022/05/24 07:56:09;;;;;;;21.92;12.60;;;13.20;99.90;;;;;;12313897;28;20050;-81
2022/05/24 08:02:11;;;;;;;17.95;11.93;;;13.20;99.90;;;;;;12338721;28;20081;-81
2022/05/24 08:08:14;;;;;;;15.85;9.35;;;12.90;99.90;;;;;;12333044;28;20058;-78
2022/05/24 08:14:16;;;;;;;19.75;8.23;;;12.80;99.90;;;;;;12325380;28;20043;-79
2022/05/24 08:20:18;;;;;;;14.50;7.15;;;12.70;99.90;;;;;;12330240;28;20039;-80
2022/05/24 08:26:20;;;;;;;13.13;7.32;;;12.60;99.90;;;;;;12342950;28;20054;-80
2022/05/24 08:32:22;;;;;;;13.82;6.80;;;12.70;99.90;;;;;;12328337;28;20050;-80
2022/05/24 08:38:26;;;;;;;11.70;6.20;;;12.80;99.90;;;;;;12334307;28;20806;-80
2022/05/24 08:51:13;;;;;;;14.05;7.85;;;12.90;99.90;;;;;;12325076;28;20051;-81
2022/05/24 08:57:25;;;;;;;13.10;8.70;;;12.90;99.90;;;;;;12329394;28;20058;-81
2022/05/24 09:03:28;;;;;;;13.15;8.45;;;13.10;99.90;;;;;;12325848;28;20054;-80
2022/05/24 09:09:38;;;;;;;11.07;8.85;;;13.30;99.90;;;;;;12345878;28;20062;-81
2022/05/24 09:16:12;;;;;;;16.63;10.70;;;13.60;99.90;;;;;;12328307;28;20451;-81
2022/05/24 09:22:15;;;;;;;13.80;9.13;;;14.00;99.90;;;;;;12333620;28;20058;-81
2022/05/24 09:28:16;;;;;;;12.43;8.82;;;14.10;99.90;;;;;;12316329;28;20054;-80
2022/05/24 09:34:18;;;;;;;12.32;8.02;;;14.00;99.90;;;;;;12342528;28;20116;-81
2022/05/24 09:40:23;;;;;;;11.15;8.10;;;13.70;99.90;;;;;;12311069;28;20130;-79
2022/05/24 09:46:26;;;;;;;9.15;6.40;;;13.90;99.90;;;;;;12307550;28;21171;-79
2022/05/24 09:52:28;;;;;;;8.07;6.10;;;13.90;99.90;;;;;;12324916;28;20047;-80
2022/05/24 09:58:34;;;;;;;8.65;6.03;;;13.90;99.90;;;;;;12329718;28;20781;-80
2022/05/24 10:04:39;;;;;;;9.20;5.60;;;14.00;99.90;;;;;;12338194;28;20050;-80
2022/05/24 10:10:45;;;;;;;7.82;5.43;;;14.10;99.90;;;;;;12315395;28;20061;-79
2022/05/24 10:16:54;;;;;;;5.35;3.60;;;14.20;99.90;;;;;;12323915;28;20561;-81
2022/05/24 10:23:04;;;;;;;6.65;4.57;;;14.30;99.90;;;;;;12322641;28;20051;-80
2022/05/24 10:29:33;;;;;;;5.18;2.90;;;14.20;99.90;;;;;;12314481;28;20124;-80
2022/05/24 10:42:23;;;;;;;5.00;2.90;;;14.60;99.90;;;;;;12322454;28;20073;-80
2022/05/24 10:48:35;;;;;;;6.35;3.30;;;14.90;99.90;;;;;;12321268;28;20051;-81
2022/05/24 10:54:55;;;;;;;6.30;3.42;;;15.10;99.90;;;;;;12334611;28;20043;-80
2022/05/24 11:01:17;;;;;;;7.50;3.50;;;14.90;99.90;;;;;;12325129;28;20043;-81
2022/05/24 11:07:20;;;;;;;6.20;3.30;;;14.80;99.90;;;;;;12360128;28;20529;-80
2022/05/24 11:13:47;;;;;;;5.65;3.60;;;14.60;99.90;;;;;;12343245;28;20108;-79
2022/05/24 11:19:52;;;;;;;5.53;3.10;;;14.70;99.90;;;;;;12335390;28;20042;-81
2022/05/24 11:26:20;;;;;;;8.15;3.10;;;15.40;99.90;;;;;;12336782;28;20093;-80
2022/05/24 11:32:44;;;;;;;5.32;3.33;;;15.60;99.90;;;;;;12353751;28;20063;-81
2022/05/24 11:38:48;;;;;;;6.83;3.00;;;15.30;99.90;;;;;;12327067;28;20047;-80
2022/05/24 11:44:53;;;;;;;7.03;3.00;;;15.20;99.90;;;;;;12313101;28;20556;-81
2022/05/24 11:50:54;;;;;;;6.65;2.85;;;15.00;99.90;;;;;;12288892;28;20097;-80
2022/05/24 11:57:00;;;;;;;5.60;2.30;;;15.50;99.90;;;;;;12339129;28;20112;-80
2022/05/24 12:10:20;;;;;;;4.22;1.55;;;17.10;99.90;;;;;;12338239;28;20058;-78
2022/05/24 12:16:48;;;;;;;3.45;1.30;;;16.60;99.90;;;;;;12186103;28;20083;-80
2022/05/24 12:23:14;;;;;;;5.45;1.50;;;15.90;99.90;;;;;;12341571;28;20050;-82
2022/05/24 12:29:25;;;;;;;7.65;1.73;;;15.80;99.90;;;;;;12378335;28;20127;-81
2022/05/24 12:35:27;;;;;;;3.65;1.30;;;16.00;99.90;;;;;;12387607;28;20046;-81
2022/05/24 12:41:36;;;;;;;5.78;1.60;;;15.90;99.90;;;;;;12381446;28;20076;-82
2022/05/24 12:47:39;;;;;;;4.68;1.45;;;17.00;99.90;;;;;;12367667;28;20053;-79
2022/05/24 12:53:41;;;;;;;5.57;1.55;;;17.50;99.90;;;;;;12375329;28;20046;-79
2022/05/24 12:59:55;;;;;;;4.90;1.17;;;17.60;99.90;;;;;;12363244;28;20112;-81
2022/05/24 13:05:57;;;;;;;6.43;1.40;;;17.70;99.90;;;;;;12379737;28;20080;-82
2022/05/24 13:12:01;;;;;;;3.70;1.20;;;17.80;99.90;;;;;;12377305;28;20064;-82
2022/05/24 13:18:14;;;;;;;4.47;1.08;;;17.90;99.90;;;;;;12386682;28;20111;-83
2022/05/24 13:24:16;;;;;;;4.63;1.10;;;17.90;99.90;;;;;;12379685;28;20042;-81
2022/05/24 13:37:06;;;;;;;2.65;1.17;;;18.30;99.90;;;;;;12380030;28;20057;-81
2022/05/24 13:43:08;;;;;;;5.80;1.13;;;18.30;99.90;;;;;;12363172;28;20103;-81
2022/05/24 13:49:24;;;;;;;5.15;0.60;;;17.60;99.90;;;;;;12360933;28;20058;-78
2022/05/24 13:55:41;;;;;;;3.55;0.80;;;17.20;99.90;;;;;;12370335;28;20050;-83
2022/05/24 14:01:43;;;;;;;4.25;0.90;;;17.60;99.90;;;;;;12385208;28;20396;-80
2022/05/24 14:07:49;;;;;;;3.67;1.10;;;17.80;99.90;;;;;;12358241;28;20156;-81
2022/05/24 14:13:51;;;;;;;7.30;1.30;;;17.90;99.90;;;;;;12372309;28;20050;-82
2022/05/24 14:19:54;;;;;;;2.95;1.20;;;17.90;99.90;;;;;;12373983;28;20534;-77
2022/05/24 14:25:55;;;;;;;4.30;1.25;;;17.90;99.90;;;;;;12364186;28;20078;-81
2022/05/24 14:31:58;;;;;;;5.20;1.50;;;17.70;99.90;;;;;;12375124;28;20096;-80
2022/05/24 14:38:00;;;;;;;3.83;1.17;;;17.60;99.90;;;;;;12408960;28;20051;-83
2022/05/24 14:44:04;;;;;;;7.25;1.50;;;18.00;99.90;;;;;;12363497;28;20037;-82
2022/05/24 14:50:06;;;;;;;4.20;1.58;;;17.60;99.90;;;;;;12376542;28;20081;-80
2022/05/24 14:56:08;;;;;;;4.13;1.50;;;17.30;99.90;;;;;;12379659;28;20100;-81
2022/05/24 15:02:10;;;;;;;3.60;1.73;;;17.40;99.90;;;;;;12378897;28;20508;-82
2022/05/24 15:21:01;;;;;;;4.97;1.30;;;17.10;99.90;;;;;;12378762;28;20123;-79
2022/05/24 15:27:08;;;;;;;4.82;1.27;;;17.00;99.90;;;;;;12375103;28;20458;-80
2022/05/24 15:33:10;;;;;;;4.38;2.22;;;16.70;99.90;;;;;;12398240;28;20061;-81
2022/05/24 15:39:12;;;;;;;5.00;3.78;;;16.30;99.90;;;;;;12377020;28;20130;-79
2022/05/24 15:45:15;;;;;;;5.63;3.78;;;15.70;99.90;;;;;;12376900;28;20045;-81
2022/05/24 15:51:16;;;;;;;6.68;4.00;;;15.40;99.90;;;;;;12360470;28;20058;-82
2022/05/24 15:57:19;;;;;;;6.80;3.05;;;15.30;99.90;;;;;;12374126;28;20411;-82
2022/05/24 16:03:21;;;;;;;4.55;3.00;;;15.30;99.90;;;;;;12383413;28;20564;-82
2022/05/24 16:15:49;;;;;;;3.95;1.80;;;15.40;99.90;;;;;;12387067;28;20053;-82
2022/05/24 16:21:50;;;;;;;4.60;1.90;;;15.30;99.90;;;;;;12385729;28;20038;-83
2022/05/24 16:27:52;;;;;;;4.00;2.30;;;15.50;99.90;;;;;;12367338;28;20561;-82
2022/05/24 16:34:09;;;;;;;5.50;2.17;;;15.30;99.90;;;;;;12373323;28;20042;-82
2022/05/24 16:40:13;;;;;;;3.35;2.50;;;15.30;99.90;;;;;;12365689;28;20145;-83
2022/05/24 16:46:15;;;;;;;5.57;2.15;;;15.30;99.90;;;;;;12368869;28;20046;-82
2022/05/24 16:52:17;;;;;;;4.05;1.80;;;15.40;99.90;;;;;;12374836;28;20049;-83
2022/05/24 17:04:42;;;;;;;3.45;2.30;;;15.90;99.90;;;;;;12387128;28;20141;-81
2022/05/24 17:10:44;;;;;;;3.47;2.00;;;16.20;99.90;;;;;;12384494;28;20070;-82
2022/05/24 17:16:46;;;;;;;2.80;2.40;;;16.50;99.90;;;;;;12409890;28;20057;-82
2022/05/24 17:22:49;;;;;;;3.60;2.47;;;16.30;99.90;;;;;;12367439;28;20054;-83
2022/05/24 17:28:51;;;;;;;3.58;2.80;;;16.00;99.90;;;;;;12387504;28;20117;-81
2022/05/24 17:34:53;;;;;;;5.05;3.50;;;15.70;99.90;;;;;;12385944;28;20495;-82
2022/05/24 17:40:57;;;;;;;3.83;3.22;;;15.70;99.90;;;;;;12386058;28;20039;-82
2022/05/24 17:46:59;;;;;;;3.90;3.20;;;15.80;99.90;;;;;;12378845;28;20418;-82
2022/05/24 17:53:02;;;;;;;5.18;3.67;;;16.00;99.90;;;;;;12362832;28;20054;-83
2022/05/24 17:59:04;;;;;;;4.40;3.87;;;16.20;99.90;;;;;;12379008;28;20405;-83
2022/05/24 18:05:09;;;;;;;4.90;3.80;;;15.90;99.90;;;;;;12361776;28;20117;-82
2022/05/24 18:11:11;;;;;;;3.90;3.25;;;15.80;99.90;;;;;;12356513;28;20046;-82
2022/05/24 18:17:13;;;;;;;5.47;3.70;;;15.40;99.90;;;;;;12381501;28;20140;-82
2022/05/24 18:23:35;;;;;;;5.55;3.65;;;15.30;99.90;;;;;;12351279;28;20153;-82
2022/05/24 18:36:04;;;;;;;6.22;4.32;;;15.20;99.90;;;;;;12369929;28;21326;-83
2022/05/24 18:42:07;;;;;;;3.75;3.33;;;15.20;99.90;;;;;;12380111;28;20050;-81
2022/05/24 18:48:10;;;;;;;5.15;3.38;;;15.10;99.90;;;;;;12371747;28;20046;-82
2022/05/24 18:54:12;;;;;;;5.75;3.30;;;14.90;99.90;;;;;;12358117;28;20045;-83
2022/05/24 19:00:14;;;;;;;5.20;3.60;;;14.90;99.90;;;;;;12389265;28;20140;-82
2022/05/24 19:06:17;;;;;;;6.55;3.20;;;14.80;99.90;;;;;;12360622;28;20088;-82
2022/05/24 19:12:21;;;;;;;3.67;3.15;;;14.80;99.90;;;;;;12377438;28;20482;-82
2022/05/24 19:18:23;;;;;;;6.75;3.45;;;14.70;99.90;;;;;;12383627;28;20050;-82
2022/05/24 19:24:25;;;;;;;6.10;3.30;;;14.60;99.90;;;;;;12369913;28;21296;-84
2022/05/24 19:30:27;;;;;;;4.10;2.80;;;14.60;99.90;;;;;;12393201;28;20510;-82
2022/05/24 19:36:29;;;;;;;6.55;3.17;;;14.50;99.90;;;;;;12384429;28;20510;-82
2022/05/24 19:42:32;;;;;;;5.53;3.10;;;14.40;99.90;;;;;;12402192;28;20069;-82
2022/05/24 19:48:34;;;;;;;5.82;3.10;;;14.30;99.90;;;;;;12385326;28;20108;-83
2022/05/24 19:54:36;;;;;;;6.50;3.85;;;14.20;99.90;;;;;;12365820;28;20088;-81
2022/05/24 20:00:38;;;;;;;6.65;3.13;;;14.20;99.90;;;;;;12362565;28;20539;-81
2022/05/24 20:06:40;;;;;;;6.10;3.50;;;14.00;99.90;;;;;;12367785;28;20115;-81
2022/05/24 20:12:42;;;;;;;4.80;3.45;;;14.00;99.90;;;;;;12381681;28;20050;-81
2022/05/24 20:18:44;;;;;;;4.78;3.60;;;13.90;99.90;;;;;;12361802;28;20046;-81
2022/05/24 20:24:46;;;;;;;4.35;3.33;;;14.00;99.90;;;;;;12357974;28;20111;-81
2022/05/24 20:30:47;;;;;;;6.07;3.40;;;14.00;99.90;;;;;;12372394;28;20054;-80
2022/05/24 20:36:49;;;;;;;6.13;3.60;;;14.00;99.90;;;;;;12396394;28;20038;-81
2022/05/24 20:42:51;;;;;;;5.22;4.00;;;13.90;99.90;;;;;;12395024;28;20038;-82
2022/05/24 20:48:55;;;;;;;5.10;4.03;;;13.90;99.90;;;;;;12369012;28;20058;-81
2022/05/24 20:54:57;;;;;;;4.50;3.67;;;13.80;99.90;;;;;;12392056;28;20038;-81
2022/05/24 21:00:59;;;;;;;5.20;3.70;;;13.80;99.90;;;;;;12393910;28;20228;-81
2022/05/24 21:07:01;;;;;;;5.22;3.88;;;13.70;99.90;;;;;;12395376;28;20797;-81
2022/05/24 21:13:03;;;;;;;7.82;4.20;;;13.50;99.90;;;;;;12385887;28;20097;-81
2022/05/24 21:19:07;;;;;;;8.30;3.90;;;13.70;99.90;;;;;;12366330;28;20046;-82
2022/05/24 21:31:30;;;;;;;6.95;3.95;;;13.60;99.90;;;;;;12373309;28;20042;-81
2022/05/24 21:37:32;;;;;;;5.10;3.92;;;13.70;99.90;;;;;;12358491;28;20673;-81
2022/05/24 21:43:34;;;;;;;4.93;3.25;;;13.60;99.90;;;;;;12366942;28;20055;-81
2022/05/24 21:49:42;;;;;;;5.50;3.53;;;13.60;99.90;;;;;;12360084;28;20051;-82
2022/05/24 21:55:46;;;;;;;4.63;3.10;;;13.70;99.90;;;;;;12385772;28;20068;-80
2022/05/24 22:01:48;;;;;;;5.55;3.10;;;13.70;99.90;;;;;;12390716;28;20122;-81
2022/05/24 22:07:50;;;;;;;3.78;2.75;;;13.70;99.90;;;;;;12376497;28;20034;-81
2022/05/24 22:13:52;;;;;;;5.10;2.97;;;13.70;99.90;;;;;;12380328;28;20092;-82
2022/05/24 22:19:54;;;;;;;6.25;2.97;;;13.60;99.90;;;;;;12404493;28;20117;-82
2022/05/24 22:25:56;;;;;;;4.65;2.65;;;13.60;99.90;;;;;;12381507;28;20061;-82
2022/05/24 22:32:02;;;;;;;3.80;2.55;;;13.60;99.90;;;;;;12397260;28;20046;-82
2022/05/24 22:38:08;;;;;;;3.88;2.05;;;13.40;99.90;;;;;;12383143;28;20078;-81
2022/05/24 22:44:10;;;;;;;4.63;2.30;;;13.50;99.90;;;;;;12378270;28;20493;-81
2022/05/24 22:50:15;;;;;;;3.95;2.25;;;13.30;99.90;;;;;;12399258;28;20105;-81
2022/05/24 22:56:20;;;;;;;4.57;1.90;;;13.20;99.90;;;;;;12375722;28;20043;-81
2022/05/24 23:02:22;;;;;;;3.90;1.65;;;13.20;99.90;;;;;;12375268;28;20107;-81
2022/05/24 23:08:25;;;;;;;4.82;1.85;;;13.20;99.90;;;;;;12379900;28;20122;-82
2022/05/24 23:14:27;;;;;;;4.63;1.58;;;13.20;99.90;;;;;;12385225;28;20046;-81
2022/05/24 23:20:29;;;;;;;7.68;2.00;;;13.10;99.90;;;;;;12360198;28;20142;-81
2022/05/24 23:26:31;;;;;;;3.28;1.80;;;13.00;99.90;;;;;;12383483;28;20057;-79
2022/05/24 23:32:33;;;;;;;3.60;1.80;;;12.90;99.90;;;;;;12364618;28;20045;-82
2022/05/24 23:38:34;;;;;;;5.07;1.92;;;12.80;99.90;;;;;;12363490;28;20137;-82
2022/05/24 23:44:38;;;;;;;6.43;1.80;;;12.90;99.90;;;;;;12378278;28;20497;-80
2022/05/24 23:50:39;;;;;;;4.03;1.80;;;12.80;99.90;;;;;;12370783;28;20129;-81
2022/05/24 23:56:42;;;;;;;5.07;1.67;;;12.70;99.90;;;;;;12362344;28;20050;-81
